createdAt,value
2018-12-24T00:00:01.206Z,10.40
2018-12-24T00:02:43.097Z,9.50
2018-12-24T00:05:24.636Z,9.80
2018-12-24T00:08:06.053Z,10.00
2018-12-24T00:10:47.548Z,10.60
2018-12-24T00:13:29.322Z,10.40
2018-12-24T00:16:10.575Z,10.70
2018-12-24T00:18:52.313Z,10.20
2018-12-24T00:21:33.617Z,10.40
2018-12-24T00:24:14.919Z,9.80
2018-12-24T00:26:56.224Z,9.70
2018-12-24T00:29:37.436Z,10.60
2018-12-24T00:32:19.141Z,11.40
2018-12-24T00:38:13.441Z,10.80
2018-12-24T00:40:55.317Z,9.40
2018-12-24T00:43:35.544Z,9.80
2018-12-24T00:55:10.472Z,9.80
2018-12-24T00:57:52.347Z,9.30
2018-12-24T01:00:33.451Z,9.50
2018-12-24T01:03:14.545Z,10.30
2018-12-24T01:05:56.277Z,10.70
2018-12-24T01:08:37.458Z,10.70
2018-12-24T01:11:18.977Z,11.10
2018-12-24T01:16:58.769Z,11.10
2018-12-24T01:19:39.944Z,11.20
2018-12-24T01:25:33.658Z,10.80
2018-12-24T01:28:14.849Z,10.30
2018-12-24T01:30:56.082Z,10.30
2018-12-24T01:33:37.346Z,10.20
2018-12-24T01:36:18.686Z,10.30
2018-12-24T01:38:59.928Z,9.80
2018-12-24T01:41:41.854Z,9.90
2018-12-24T01:44:21.986Z,10.20
2018-12-24T01:47:11.076Z,9.60
2018-12-24T01:55:54.287Z,10.20
2018-12-24T01:58:35.302Z,9.30
2018-12-24T02:01:16.704Z,9.00
2018-12-24T02:07:10.748Z,10.30
2018-12-24T02:09:52.593Z,10.20
2018-12-24T02:12:42.017Z,9.80
2018-12-24T02:15:17.000Z,10.40
2018-12-24T02:17:58.278Z,10.90
2018-12-24T02:20:39.529Z,11.40
2018-12-24T02:23:21.465Z,11.50
2018-12-24T02:26:03.145Z,10.50
2018-12-24T02:28:44.297Z,10.00
2018-12-24T02:31:25.515Z,9.90
2018-12-24T02:34:07.456Z,9.80
2018-12-24T02:36:48.774Z,9.70
2018-12-24T02:39:29.868Z,10.00
2018-12-24T02:42:10.887Z,9.70
2018-12-24T02:44:52.333Z,9.40
2018-12-24T02:47:33.555Z,10.00
2018-12-24T02:50:13.653Z,10.60
2018-12-24T02:55:49.704Z,10.70
2018-12-24T03:08:36.037Z,10.90
2018-12-24T03:11:16.981Z,10.20
2018-12-24T03:13:58.563Z,10.60
2018-12-24T03:16:40.087Z,10.40
2018-12-24T03:19:21.285Z,10.60
2018-12-24T03:22:02.674Z,11.10
2018-12-24T03:24:43.549Z,10.90
2018-12-24T03:27:25.097Z,9.60
2018-12-24T03:30:06.708Z,9.20
2018-12-24T03:32:48.466Z,9.30
2018-12-24T03:35:30.304Z,10.90
2018-12-24T03:38:11.842Z,10.60
2018-12-24T03:40:53.189Z,11.30
2018-12-24T03:43:34.859Z,11.70
2018-12-24T03:46:15.685Z,12.00
2018-12-24T03:48:56.533Z,11.50
2018-12-24T03:54:19.969Z,11.50
2018-12-24T03:56:59.723Z,10.90
2018-12-24T04:08:52.335Z,11.10
2018-12-24T04:32:31.969Z,11.30
2018-12-24T04:58:24.264Z,9.90
2018-12-24T05:01:05.005Z,10.10
2018-12-24T05:03:46.446Z,10.40
2018-12-24T05:06:27.378Z,10.40
2018-12-24T05:09:09.039Z,11.10
2018-12-24T05:11:49.908Z,11.00
2018-12-24T05:14:31.301Z,11.40
2018-12-24T05:17:11.045Z,11.10
2018-12-24T05:23:09.485Z,11.00
2018-12-24T05:28:55.085Z,10.80
2018-12-24T05:31:43.781Z,10.90
2018-12-24T05:34:32.641Z,10.70
2018-12-24T05:40:30.484Z,11.50
2018-12-24T05:46:14.592Z,10.90
2018-12-24T05:54:54.172Z,10.50
2018-12-24T05:57:35.685Z,9.60
2018-12-24T06:00:17.425Z,10.50
2018-12-24T06:02:58.941Z,10.60
2018-12-24T06:05:40.165Z,10.80
2018-12-24T06:08:21.790Z,10.70
2018-12-24T06:11:03.201Z,11.00
2018-12-24T06:13:44.784Z,10.70
2018-12-24T06:16:26.090Z,11.50
2018-12-24T06:19:07.019Z,11.70
2018-12-24T06:21:47.868Z,11.50
2018-12-24T06:24:29.483Z,11.40
2018-12-24T06:27:10.778Z,11.40
2018-12-24T06:29:52.501Z,11.20
2018-12-24T06:32:34.054Z,10.60
2018-12-24T06:35:15.679Z,11.50
2018-12-24T06:37:57.380Z,11.20
2018-12-24T06:40:39.002Z,11.30
2018-12-24T06:43:19.786Z,10.50
2018-12-24T06:46:01.337Z,10.20
2018-12-24T06:48:42.660Z,11.20
2018-12-24T06:51:24.273Z,11.60
2018-12-24T06:54:05.597Z,11.30
2018-12-24T06:56:46.723Z,10.80
2018-12-24T06:59:27.886Z,10.90
2018-12-24T07:02:09.433Z,10.40
2018-12-24T07:04:50.905Z,10.80
2018-12-24T07:07:32.188Z,10.40
2018-12-24T07:10:13.817Z,9.80
2018-12-24T07:12:54.970Z,10.80
2018-12-24T07:15:35.710Z,9.80
2018-12-24T07:18:17.068Z,10.30
2018-12-24T07:20:58.373Z,11.30
2018-12-24T07:23:39.259Z,11.40
2018-12-24T07:26:20.792Z,11.40
2018-12-24T07:32:00.378Z,11.70
2018-12-24T07:34:42.164Z,11.40
2018-12-24T07:37:25.295Z,11.80
2018-12-24T07:40:06.497Z,12.10
2018-12-24T07:42:47.330Z,11.90
2018-12-24T07:45:27.012Z,11.30
2018-12-24T07:51:28.435Z,11.60
2018-12-24T07:56:53.396Z,11.60
2018-12-24T07:59:34.935Z,11.90
2018-12-24T08:02:16.569Z,11.70
2018-12-24T08:04:58.148Z,11.50
2018-12-24T08:07:39.368Z,11.40
2018-12-24T08:10:20.549Z,11.70
2018-12-24T08:13:01.354Z,11.10
2018-12-24T08:15:42.720Z,11.60
2018-12-24T08:18:22.614Z,11.50
2018-12-24T08:24:34.494Z,11.60
2018-12-24T08:36:10.902Z,11.40
2018-12-24T08:45:22.212Z,10.40
2018-12-24T08:48:14.785Z,9.70
2018-12-24T08:53:46.962Z,10.70
2018-12-24T08:56:29.234Z,11.30
2018-12-24T08:59:10.719Z,11.30
2018-12-24T09:01:52.060Z,11.80
2018-12-24T09:04:33.664Z,10.30
2018-12-24T09:07:15.238Z,10.20
2018-12-24T09:09:56.944Z,10.80
2018-12-24T09:12:38.565Z,9.40
2018-12-24T09:15:20.166Z,9.10
2018-12-24T09:18:01.737Z,9.90
2018-12-24T09:20:43.333Z,10.40
2018-12-24T09:23:23.118Z,9.00
2018-12-24T09:26:23.889Z,8.70
2018-12-24T09:29:03.668Z,8.40
2018-12-24T09:31:52.429Z,8.00
2018-12-24T09:43:48.709Z,8.40
2018-12-24T09:46:37.458Z,8.20
2018-12-24T09:52:35.577Z,8.90
2018-12-24T09:58:33.645Z,9.00
2018-12-24T10:08:00.486Z,9.30
2018-12-24T10:10:39.273Z,9.60
2018-12-24T10:28:22.759Z,10.20
2018-12-24T10:37:07.401Z,9.00
2018-12-24T10:46:24.119Z,8.60
2018-12-24T10:57:38.326Z,9.00
2018-12-24T11:15:25.194Z,9.70
2018-12-24T11:21:27.569Z,9.50
2018-12-24T11:36:26.286Z,8.90
2018-12-24T11:42:11.893Z,9.90
2018-12-24T11:44:41.984Z,9.90
2018-12-24T11:47:12.038Z,9.30
2018-12-24T11:49:42.013Z,9.30
2018-12-24T11:52:12.084Z,9.70
2018-12-24T11:54:42.059Z,10.20
2018-12-24T11:57:12.277Z,10.80
2018-12-24T11:59:42.294Z,10.50
2018-12-24T12:02:12.365Z,9.50
2018-12-24T12:04:42.636Z,9.50
2018-12-24T12:07:12.597Z,9.10
2018-12-24T12:09:42.669Z,9.00
2018-12-24T12:12:12.621Z,8.90
2018-12-24T12:14:42.509Z,9.50
2018-12-24T12:17:12.468Z,9.80
2018-12-24T12:19:42.320Z,8.70
2018-12-24T12:22:12.276Z,9.00
2018-12-24T12:24:42.359Z,8.80
2018-12-24T12:27:12.412Z,8.50
2018-12-24T12:29:42.598Z,8.70
2018-12-24T12:32:12.856Z,9.10
2018-12-24T12:34:43.050Z,8.80
2018-12-24T12:37:13.105Z,9.30
2018-12-24T12:39:43.229Z,9.10
2018-12-24T12:42:13.321Z,8.60
2018-12-24T12:44:43.308Z,9.00
2018-12-24T12:47:13.136Z,9.90
2018-12-24T12:49:42.992Z,10.30
2018-12-24T12:52:12.944Z,10.40
2018-12-24T12:54:42.793Z,9.70
2018-12-24T12:57:12.889Z,9.50
2018-12-24T12:59:43.397Z,9.50
2018-12-24T13:02:13.595Z,9.80
2018-12-24T13:04:43.698Z,10.20
2018-12-24T13:07:14.677Z,10.30
2018-12-24T13:09:44.657Z,10.20
2018-12-24T13:12:14.518Z,10.30
2018-12-24T13:14:44.512Z,10.50
2018-12-24T13:17:14.554Z,10.10
2018-12-24T13:19:44.509Z,10.60
2018-12-24T13:22:14.475Z,10.70
2018-12-24T13:24:44.432Z,10.70
2018-12-24T13:27:14.681Z,11.00
2018-12-24T13:29:44.885Z,11.20
2018-12-24T13:32:14.957Z,11.30
2018-12-24T13:34:44.798Z,11.20
2018-12-24T13:37:14.590Z,10.90
2018-12-24T13:39:44.932Z,11.00
2018-12-24T13:42:15.036Z,11.20
2018-12-24T13:44:45.185Z,10.90
2018-12-24T13:47:15.319Z,11.10
2018-12-24T13:49:45.521Z,11.10
2018-12-24T13:52:15.829Z,11.30
2018-12-24T13:54:45.771Z,11.50
2018-12-24T13:57:15.844Z,11.50
2018-12-24T13:59:47.475Z,11.40
2018-12-24T14:02:17.624Z,11.50
2018-12-24T14:04:47.817Z,11.60
2018-12-24T14:07:18.802Z,11.30
2018-12-24T14:09:48.783Z,11.10
2018-12-24T14:12:19.159Z,11.20
2018-12-24T14:14:49.240Z,11.40
2018-12-24T14:17:19.497Z,11.40
2018-12-24T14:19:49.565Z,10.90
2018-12-24T14:22:19.524Z,11.00
2018-12-24T14:24:49.712Z,10.70
2018-12-24T14:27:19.764Z,11.20
2018-12-24T14:29:49.852Z,11.20
2018-12-24T14:32:20.002Z,11.40
2018-12-24T14:34:50.195Z,11.40
2018-12-24T14:37:20.245Z,11.40
2018-12-24T14:39:50.224Z,11.40
2018-12-24T14:42:21.397Z,11.40
2018-12-24T14:44:52.819Z,11.50
2018-12-24T14:47:22.921Z,11.50
2018-12-24T14:49:52.849Z,11.50
2018-12-24T14:52:22.835Z,11.50
2018-12-24T14:54:52.757Z,11.40
2018-12-24T14:57:22.849Z,11.50
2018-12-24T14:59:52.701Z,11.50
2018-12-24T15:02:22.557Z,11.50
2018-12-24T15:04:52.634Z,11.50
2018-12-24T15:07:22.584Z,11.50
2018-12-24T15:09:52.773Z,11.50
2018-12-24T15:12:22.714Z,11.40
2018-12-24T15:14:52.699Z,11.40
2018-12-24T15:17:22.921Z,11.40
2018-12-24T15:19:52.949Z,11.50
2018-12-24T15:22:23.108Z,11.50
2018-12-24T15:24:53.292Z,11.50
2018-12-24T15:27:23.544Z,11.40
2018-12-24T15:29:53.437Z,11.40
2018-12-24T15:32:23.628Z,11.40
2018-12-24T15:34:53.837Z,11.40
2018-12-24T15:37:23.978Z,11.30
2018-12-24T15:39:53.932Z,11.00
2018-12-24T15:42:24.112Z,11.00
2018-12-24T15:44:54.364Z,11.10
2018-12-24T15:47:24.849Z,11.30
2018-12-24T15:49:56.628Z,11.30
2018-12-24T15:52:26.543Z,11.30
2018-12-24T15:54:56.492Z,11.20
2018-12-24T15:57:26.565Z,11.30
2018-12-24T15:59:56.565Z,11.30
2018-12-24T16:02:28.437Z,11.30
2018-12-24T16:04:58.437Z,11.30
2018-12-24T16:07:28.377Z,11.20
2018-12-24T16:09:58.293Z,10.90
2018-12-24T16:12:28.291Z,11.10
2018-12-24T16:14:58.293Z,11.20
2018-12-24T16:17:28.233Z,11.00
2018-12-24T16:19:58.262Z,11.10
2018-12-24T16:22:28.483Z,11.20
2018-12-24T16:24:58.496Z,11.20
2018-12-24T16:27:28.513Z,11.20
2018-12-24T16:29:58.245Z,11.20
2018-12-24T16:32:28.428Z,11.20
2018-12-24T16:34:58.480Z,11.20
2018-12-24T16:37:28.569Z,11.20
2018-12-24T16:39:58.453Z,11.20
2018-12-24T16:42:28.297Z,11.00
2018-12-24T16:44:58.204Z,10.90
2018-12-24T16:47:28.178Z,11.00
2018-12-24T16:49:58.136Z,11.00
2018-12-24T16:52:28.196Z,11.00
2018-12-24T16:54:58.178Z,11.00
2018-12-24T16:57:28.330Z,11.10
2018-12-24T16:59:58.081Z,11.00
2018-12-24T17:02:27.964Z,11.00
2018-12-24T17:04:58.037Z,11.00
2018-12-24T17:07:28.104Z,11.00
2018-12-24T17:09:58.134Z,11.00
2018-12-24T17:12:28.122Z,10.80
2018-12-24T17:14:58.110Z,10.90
2018-12-24T17:17:27.953Z,10.90
2018-12-24T17:19:57.713Z,10.90
2018-12-24T17:22:27.785Z,10.90
2018-12-24T17:24:58.029Z,10.90
2018-12-24T17:27:27.917Z,10.80
2018-12-24T17:29:57.976Z,10.80
2018-12-24T17:32:28.058Z,10.80
2018-12-24T17:34:58.189Z,10.90
2018-12-24T17:37:28.087Z,10.80
2018-12-24T17:39:57.949Z,10.80
2018-12-24T17:42:28.109Z,10.80
2018-12-24T17:44:58.282Z,10.80
2018-12-24T17:47:28.456Z,10.70
2018-12-24T17:50:17.097Z,10.80
2018-12-24T17:58:49.109Z,10.30
2018-12-24T18:01:30.506Z,10.60
2018-12-24T18:04:11.472Z,10.70
2018-12-24T18:06:53.092Z,10.70
2018-12-24T18:09:34.053Z,10.70
2018-12-24T18:12:14.778Z,10.70
2018-12-24T18:14:56.377Z,10.30
2018-12-24T18:17:38.959Z,10.40
2018-12-24T18:20:20.656Z,10.60
2018-12-24T18:23:02.131Z,10.60
2018-12-24T18:25:43.420Z,10.40
2018-12-24T18:28:25.035Z,10.50
2018-12-24T18:31:06.348Z,10.40
2018-12-24T18:33:47.270Z,10.50
2018-12-24T18:36:28.209Z,10.30
2018-12-24T18:39:09.044Z,10.50
2018-12-24T18:41:50.673Z,10.40
2018-12-24T18:44:31.712Z,10.50
2018-12-24T18:47:12.709Z,10.50
2018-12-24T18:49:54.288Z,10.50
2018-12-24T18:52:35.181Z,10.30
2018-12-24T18:55:16.610Z,10.30
2018-12-24T18:57:58.526Z,10.40
2018-12-24T19:00:29.184Z,10.10
2018-12-24T19:24:23.183Z,9.90
2018-12-24T19:39:07.942Z,10.50
2018-12-24T20:26:05.053Z,10.10
2018-12-24T20:31:49.629Z,10.30
2018-12-24T20:57:58.465Z,10.30
2018-12-24T21:00:39.412Z,10.40
2018-12-24T21:03:19.161Z,10.40
2018-12-24T21:29:41.557Z,10.10
2018-12-24T21:38:24.541Z,9.90
2018-12-24T21:47:22.590Z,10.10
2018-12-24T21:54:04.588Z,10.40
2018-12-24T21:56:46.325Z,10.30
2018-12-24T21:59:55.494Z,10.10
2018-12-24T22:14:13.109Z,9.00
2018-12-24T22:17:22.265Z,9.50
2018-12-24T22:23:13.606Z,10.00
2018-12-24T22:28:43.535Z,10.10
2018-12-24T22:57:57.605Z,9.70
2018-12-24T23:03:48.909Z,9.80
2018-12-24T23:06:30.528Z,9.90
2018-12-24T23:09:11.298Z,10.00
2018-12-24T23:11:52.233Z,9.80
2018-12-24T23:14:33.125Z,9.60
2018-12-24T23:17:14.681Z,9.40
2018-12-24T23:19:56.261Z,9.40
2018-12-24T23:22:37.924Z,9.40
2018-12-24T23:25:18.837Z,9.60
2018-12-24T23:28:00.441Z,9.80
2018-12-24T23:30:41.205Z,9.80
2018-12-24T23:33:22.925Z,9.80
2018-12-24T23:36:04.396Z,9.80
2018-12-24T23:38:45.949Z,9.80
2018-12-24T23:41:27.491Z,9.30
2018-12-24T23:44:36.545Z,9.40
